EW3739 Weather Reports


Display with metric or nautical units.
time (UTC)temp
F
wind
direction
speed
MPH
gust
MPH
rain 1hr
in
rain 24hr
in
rain mn
in
humidity
%
barometer
mb
20200219230042 78 186 0.0 2.0 0.00 0.00 0.00 81 1019.5
20200219223106 78 156 0.0 3.0 0.00 0.00 0.00 80 1019.4
20200219221808 79 193 1.0 5.0 0.00 0.00 0.00 79 1019.2
20200219220051 79 157 0.0 4.0 0.00 0.00 0.00 77 1019.1
20200219213103 80 169 0.0 2.0 0.00 0.00 0.00 76 1019.1
20200219210042 80 197 0.0 3.0 0.00 0.00 0.00 73 1019.0
20200219203047 82 139 0.0 3.0 0.00 0.00 0.00 71 1019.1
20200219201557 82 179 0.0 2.0 0.00 0.00 0.00 72 1019.2
20200219200223 83 211 1.0 4.0 0.00 0.00 0.00 72 1019.2
20200219193048 84 172 1.0 3.0 0.00 0.00 0.00 70 1019.3
20200219191634 85 181 1.0 5.0 0.00 0.00 0.00 68 1019.3
20200219190108 86 180 1.0 5.0 0.00 0.00 0.00 68 1019.4
20200219183110 85 166 1.0 4.0 0.00 0.00 0.00 70 1019.8
20200219181617 85 170 2.0 6.0 0.00 0.00 0.00 71 1020.1
20200219180119 85 172 1.0 3.0 0.00 0.00 0.00 72 1020.3
20200219173049 85 229 1.0 2.0 0.00 0.00 0.00 67 1020.8
20200219171641 86 197 0.0 4.0 0.00 0.00 0.00 64 1021.0
20200219170042 86 216 1.0 3.0 0.00 0.00 0.00 64 1021.2
20200219163114 88 181 0.0 5.0 0.00 0.00 0.00 63 1021.5
20200219161556 88 205 0.0 4.0 0.00 0.00 0.00 62 1021.6
20200219160034 87 174 1.0 4.0 0.00 0.00 0.00 64 1021.7
20200219153125 80 298 1.0 3.0 0.00 0.00 0.00 78 1021.9
20200219151531 79 283 1.0 5.0 0.00 0.00 0.00 82 1022.0
20200219150024 78 210 1.0 5.0 0.00 0.00 0.00 85 1021.9
20200219143024 75 211 1.0 3.0 0.00 0.00 0.00 93 1022.0
20200219141532 75 239 0.0 3.0 0.00 0.00 0.00 96 1021.9
20200219140009 75 250 0.0 2.0 0.00 0.00 0.00 98 1021.6
20200219133003 71 249 0.0 0.0 0.00 0.00 0.00 97 1021.4
20200219131711 70 249 0.0 1.0 0.00 0.00 0.00 97 1021.3
20200219130149 69 249 0.0 0.0 0.00 0.00 0.00 97 1021.3
20200219121622 67 249 0.0 0.0 0.00 0.00 0.00 96 1020.9
20200219120156 67 249 0.0 0.0 0.00 0.00 0.00 96 1020.7
20200219113123 66 249 0.0 0.0 0.00 0.00 0.00 95 1020.4
20200219111616 66 249 0.0 0.0 0.00 0.00 0.00 94 1020.3
20200219110142 66 249 0.0 0.0 0.00 0.00 0.00 94 1020.1
20200219103207 66 249 0.0 0.0 0.00 0.00 0.00 94 1019.9
20200219101622 67 249 0.0 0.0 0.00 0.00 0.00 94 1019.8
20200219100210 67 249 0.0 0.0 0.00 0.00 0.00 94 1019.6
20200219093153 67 249 0.0 0.0 0.00 0.00 0.00 94 1019.6
20200219091621 67 249 0.0 0.0 0.00 0.00 0.00 93 1019.6
20200219090135 67 249 0.0 0.0 0.00 0.00 0.00 93 1019.5
20200219083057 68 249 0.0 0.0 0.00 0.00 0.00 93 1019.4
20200219081718 68 249 0.0 0.0 0.00 0.00 0.00 93 1019.4
20200219080107 68 249 0.0 0.0 0.00 0.00 0.00 93 1019.4
20200219073052 69 249 0.0 0.0 0.00 0.00 0.00 93 1019.5
20200219071730 69 249 0.0 0.0 0.00 0.00 0.00 93 1019.5
20200219070136 69 249 0.0 0.0 0.00 0.00 0.00 93 1019.5
20200219063132 69 249 0.0 0.0 0.00 0.00 0.00 93 1019.7
20200219061549 69 249 0.0 0.0 0.00 0.00 0.00 93 1019.7
20200219060128 70 249 0.0 0.0 0.00 0.00 0.00 93 1019.7
20200219053131 70 249 0.0 0.0 0.00 0.00 0.00 93 1019.9
20200219051549 70 249 0.0 0.0 0.00 0.00 0.00 92 1020.0
20200219050145 70 249 0.0 0.0 0.00 0.00 0.00 93 1020.1
20200219043219 71 249 0.0 0.0 0.00 0.00 0.00 92 1020.1
20200219041557 71 249 0.0 0.0 0.00 0.00 0.00 92 1020.3
20200219040142 71 249 0.0 0.0 0.00 0.00 0.00 92 1020.3
20200219033113 72 249 0.0 0.0 0.00 0.00 0.00 91 1020.1
20200219031624 72 249 0.0 0.0 0.00 0.00 0.00 91 1020.3
20200219030039 72 249 0.0 0.0 0.00 0.00 0.00 90 1020.1
20200219023047 73 249 0.0 0.0 0.00 0.00 0.00 90 1020.1
20200219021644 73 249 0.0 0.0 0.00 0.00 0.00 90 1020.0
20200219020204 73 186 0.0 0.0 0.00 0.00 0.00 89 1019.8
20200219013057 74 186 0.0 1.0 0.00 0.00 0.00 89 1019.7
20200219011607 74 185 0.0 2.0 0.00 0.00 0.00 89 1019.7
20200219010103 74 190 0.0 2.0 0.00 0.00 0.00 88 1019.6
20200219003042 74 226 0.0 3.0 0.00 0.00 0.00 87 1019.3
20200219001611 75 183 0.0 4.0 0.00 0.00 0.00 87 1019.4
20200219000114 75 242 0.0 2.0 0.00 0.00 0.00 86 1019.3
20200218233116 76 140 1.0 5.0 0.00 0.00 0.00 84 1019.1
20200218231612 76 189 1.0 6.0 0.00 0.00 0.00 82 1019.1